Airfield :
LOGIN :

Register | Disclaimer

   EN    FR    IT 

 










Legend :    VFR   Marginal VFR   IFR   Intensive IFR   Very Intensive IFR
Visi :
Ceiling :
>= 8 km
>= 3000ft
5 to 8 km
1000 to 3000 ft
1500m to 5 km
500 to 1000 ft
800 to 1500m
200 to 500 ft
< 800m
< 200 ft
Symbols :   Thunderstorms  Fog  Heavy snow  Heavy precipitations  Wind > 20 kt
SIGMETs :     Misc.  Thunderstorms  Icing  Turbulence  Mountain Waves  Volcanic Ashes







- Airport Elevation : 87 ft
- IATA code : FSC
- Download approach charts


LFKF - Figari

CURRENT METAR :
  • 111930Z AUTO 05003KT 9999 BKN029/// 06/06 Q1018 NOSIG

EXPIRED METARs :
  • 111900Z AUTO 05004KT 9999 FEW054/// 05/03 Q1018 NOSIG
  • 111830Z AUTO 05003KT 9999 OVC052/// 05/04 Q1018 NOSIG
  • 111800Z AUTO 03002KT 9999 BKN050/// 05/04 Q1017 NOSIG
  • 111730Z AUTO 04003KT 9999 BKN049/// 06/04 Q1017 NOSIG
  • 111700Z AUTO 03005KT 9999 FEW048/// 06/05 Q1017 NOSIG

TAF TAF LFKF
Valid from the 11 at 15:00 until the 12 at 15:00 UTC


111400Z 1115/1215 24005KT 9999 SCT033
TEMPO 1115/1117 BKN033
BECMG 1118/1120 04005KT CAVOK
TEMPO 1203/1207 BKN030
BECMG 1208/1210 24005KT SCT030 BKN080
No reported NOTAMs for that airfield.



MET'MAP, your aeronautical weather chart ! - Copyright ORBIFLY December 2007 - Disclaimer

ORBIFLY MET'MAP TEAM :

Programming & Development : Alexandra Zaïnal
Concept & Development : Baudouin d'Aumeries
Co-Development & Prog : Marc-Olivier Méhu
Technical & hardware support : Manuel Goepfert

Contact : metmap@orbifly.com




SOURCES & CREDITS :

   NOAA